FANY weather

Nylstroom Airfield
Modimolle, Limpopo, South Africa

Public forecast

Using degrees Celsius for public forecast. Weather courtesy of forecast.io.

Closest aviation weather report (METAR) to Nylstroom Airfield

Closest report is Wonderboom Airport, 59.2 nm (109.7 km) S. Retrieved 2020/05/29 00:00 UTC (46 minutes ago):

FAWB 290000Z AUTO 22007KT //// // ////// 07/M01 Q1022

Closest aviation forecast (TAF) to Nylstroom Airfield

Forecast is more than 12 hours old.

Closest forecast is Wonderboom Airport, 59.2 nm (109.7 km) S. Retrieved 2019/01/10 10:00 UTC (1 year ago):

TAF FAWB 101000Z 1010/1018 30007KT CAVOK BECMG 1014/1016 SCT035 PROB30 TEMPO 1016/1018 -TSRA FEW040CB TX31/1013Z TN26/1018Z